Terminal Aerodrome Forecast
Issued by NWS

Home | Current Version | Previous Version | Text Only | Print | Product List | Glossary On
Versions: 1 2 3 4 5 6 7 8 9 10 11 12 13 14 15 16 17
000
FTPA31 PHFO 221720
TAFHTO
TAF
PHTO 221720Z 2218/2318 VRB06KT P6SM VCSH SCT025 OVC040
      TEMPO 2218/2220 2SM SHRA BR BKN025 OVC035
     FM222200 04008KT P6SM VCSH SCT025 BKN040
     FM230600 24005KT P6SM VCSH SCT025 BKN040=

USA.gov is the U.S. government's official web portal to all federal, state and local government web resources and services.